createdAt,value
2018-11-21T00:00:11.113Z,48.48
2018-11-21T00:00:42.254Z,48.25
2018-11-21T00:01:13.277Z,48.10
2018-11-21T00:01:44.400Z,49.00
2018-11-21T00:02:15.474Z,50.73
2018-11-21T00:02:46.540Z,55.00
2018-11-21T00:03:17.613Z,47.65
2018-11-21T00:03:48.738Z,48.68
2018-11-21T00:04:19.868Z,50.83
2018-11-21T00:04:50.957Z,46.25
2018-11-21T00:05:22.032Z,46.50
2018-11-21T00:05:53.120Z,46.60
2018-11-21T00:06:24.198Z,48.52
2018-11-21T00:06:55.385Z,51.63
2018-11-21T00:07:26.442Z,50.63
2018-11-21T00:07:57.509Z,47.58
2018-11-21T00:08:28.597Z,45.67
2018-11-21T00:08:59.743Z,49.25
2018-11-21T00:09:30.756Z,47.00
2018-11-21T00:10:01.828Z,48.02
2018-11-21T00:10:32.918Z,47.75
2018-11-21T00:11:03.995Z,46.83
2018-11-21T00:11:35.065Z,47.50
2018-11-21T00:12:06.138Z,47.35
2018-11-21T00:12:37.224Z,45.75
2018-11-21T00:13:08.296Z,45.12
2018-11-21T00:13:41.336Z,47.67
2018-11-21T00:14:12.345Z,46.02
2018-11-21T00:14:43.426Z,45.48
2018-11-21T00:15:14.506Z,40.55
2018-11-21T00:15:45.627Z,46.58
2018-11-21T00:16:16.709Z,45.48
2018-11-21T00:16:47.775Z,50.75
2018-11-21T00:17:18.842Z,47.13
2018-11-21T00:17:49.939Z,47.88
2018-11-21T00:18:21.009Z,47.88
2018-11-21T00:19:00.670Z,48.10
2018-11-21T00:19:26.277Z,49.93
2018-11-21T00:19:57.422Z,48.15
2018-11-21T00:20:28.463Z,46.13
2018-11-21T00:20:59.539Z,46.63
2018-11-21T00:21:30.609Z,47.83
2018-11-21T00:22:01.726Z,50.50
2018-11-21T00:22:32.796Z,46.77
2018-11-21T00:23:03.874Z,51.40
2018-11-21T00:23:34.944Z,46.88
2018-11-21T00:24:06.108Z,47.98
2018-11-21T00:24:37.158Z,57.30
2018-11-21T00:25:08.244Z,47.25
2018-11-21T00:25:39.319Z,46.92
2018-11-21T00:26:11.389Z,47.27
2018-11-21T00:26:42.511Z,47.00
2018-11-21T00:27:13.631Z,45.75
2018-11-21T00:27:44.703Z,51.02
2018-11-21T00:28:15.792Z,51.28
2018-11-21T00:28:46.854Z,46.40
2018-11-21T00:29:20.761Z,46.90
2018-11-21T00:29:51.847Z,50.63
2018-11-21T00:30:22.920Z,46.70
2018-11-21T00:30:53.993Z,46.50
2018-11-21T00:31:25.080Z,44.93
2018-11-21T00:31:56.206Z,44.45
2018-11-21T00:32:27.261Z,44.67
2018-11-21T00:32:58.341Z,47.88
2018-11-21T00:33:29.412Z,46.63
2018-11-21T00:34:00.497Z,47.93
2018-11-21T00:34:31.614Z,48.85
2018-11-21T00:35:02.690Z,47.73
2018-11-21T00:35:33.820Z,45.65
2018-11-21T00:36:04.997Z,44.90
2018-11-21T00:36:36.083Z,44.85
2018-11-21T00:37:07.273Z,43.28
2018-11-21T00:37:38.257Z,48.40
2018-11-21T00:38:09.338Z,43.42
2018-11-21T00:38:40.439Z,46.28
2018-11-21T00:39:11.642Z,44.05
2018-11-21T00:39:42.700Z,46.42
2018-11-21T00:40:15.758Z,47.93
2018-11-21T00:40:46.853Z,45.10
2018-11-21T00:41:17.961Z,46.88
2018-11-21T00:41:50.878Z,46.30
2018-11-21T00:42:20.130Z,46.58
2018-11-21T00:42:51.174Z,46.70
2018-11-21T00:43:22.294Z,45.90
2018-11-21T00:43:53.379Z,46.42
2018-11-21T00:44:24.471Z,48.50
2018-11-21T00:44:55.556Z,47.43
2018-11-21T00:45:26.687Z,45.80
2018-11-21T00:45:57.698Z,43.08
2018-11-21T00:46:28.819Z,44.88
2018-11-21T00:46:59.891Z,46.60
2018-11-21T00:47:33.724Z,43.68
2018-11-21T00:48:04.799Z,42.20
2018-11-21T00:48:38.657Z,43.63
2018-11-21T00:49:09.727Z,41.92
2018-11-21T00:49:40.806Z,44.77
2018-11-21T00:50:12.106Z,48.08
2018-11-21T00:50:43.178Z,47.45
2018-11-21T00:51:14.542Z,46.23
2018-11-21T00:51:45.710Z,45.08
2018-11-21T00:52:16.800Z,45.63
2018-11-21T00:52:47.812Z,46.35
2018-11-21T00:53:18.888Z,45.43
2018-11-21T00:53:49.964Z,45.10
2018-11-21T00:54:21.047Z,43.80
2018-11-21T00:54:52.132Z,44.55
2018-11-21T00:55:23.196Z,44.25
2018-11-21T00:55:54.274Z,46.30
2018-11-21T00:56:25.430Z,45.75
2018-11-21T00:56:56.506Z,45.43
2018-11-21T00:57:27.647Z,44.67
2018-11-21T00:57:58.712Z,44.73
2018-11-21T00:58:29.847Z,44.88
2018-11-21T00:59:00.902Z,45.45
2018-11-21T00:59:31.988Z,46.20
2018-11-21T01:00:03.132Z,46.30
2018-11-21T01:00:34.167Z,41.58
2018-11-21T01:01:05.454Z,43.73
2018-11-21T01:01:36.533Z,44.15
2018-11-21T01:02:07.654Z,43.23
2018-11-21T01:02:39.963Z,45.25
2018-11-21T01:03:11.028Z,45.45
2018-11-21T01:03:42.094Z,45.98
2018-11-21T01:04:13.169Z,44.20
2018-11-21T01:04:44.298Z,42.95
2018-11-21T01:05:15.363Z,43.60
2018-11-21T01:05:46.440Z,47.00
2018-11-21T01:06:17.558Z,47.88
2018-11-21T01:06:48.625Z,45.15
2018-11-21T01:07:19.716Z,45.08
2018-11-21T01:07:50.783Z,40.33
2018-11-21T01:08:21.861Z,43.98
2018-11-21T01:08:53.002Z,42.05
2018-11-21T01:09:24.172Z,42.40
2018-11-21T01:09:55.279Z,44.05
2018-11-21T01:10:26.349Z,45.00
2018-11-21T01:10:57.420Z,48.45
2018-11-21T01:11:28.487Z,42.85
2018-11-21T01:11:59.571Z,43.20
2018-11-21T01:12:33.461Z,44.67
2018-11-21T01:13:04.483Z,44.98
2018-11-21T01:13:35.561Z,43.25
2018-11-21T01:14:08.904Z,46.28
2018-11-21T01:14:40.311Z,44.03
2018-11-21T01:15:11.379Z,42.33
2018-11-21T01:15:42.456Z,41.73
2018-11-21T01:16:13.550Z,44.18
2018-11-21T01:16:44.601Z,41.90
2018-11-21T01:17:15.676Z,44.75
2018-11-21T01:17:46.741Z,44.50
2018-11-21T01:18:17.814Z,46.18
2018-11-21T01:18:48.895Z,45.05
2018-11-21T01:19:20.009Z,42.93
2018-11-21T01:19:54.062Z,40.85
2018-11-21T01:20:25.130Z,43.78
2018-11-21T01:20:56.203Z,41.37
2018-11-21T01:21:27.327Z,43.08
2018-11-21T01:21:58.400Z,45.43
2018-11-21T01:22:29.473Z,42.80
2018-11-21T01:23:00.549Z,44.95
2018-11-21T01:23:31.635Z,43.60
2018-11-21T01:24:02.702Z,41.88
2018-11-21T01:24:33.825Z,45.05
2018-11-21T01:25:04.922Z,42.17
2018-11-21T01:25:35.972Z,40.65
2018-11-21T01:26:07.048Z,41.92
2018-11-21T01:26:38.118Z,42.55
2018-11-21T01:27:09.219Z,43.92
2018-11-21T01:27:40.271Z,44.40
2018-11-21T01:28:11.443Z,44.03
2018-11-21T01:28:43.697Z,47.48
2018-11-21T01:29:14.813Z,45.78
2018-11-21T01:29:47.650Z,47.62
2018-11-21T01:30:18.754Z,47.27
2018-11-21T01:30:49.901Z,48.78
2018-11-21T01:31:21.029Z,40.55
2018-11-21T01:31:52.178Z,47.30
2018-11-21T01:32:24.451Z,43.15
2018-11-21T01:32:55.670Z,43.33
2018-11-21T01:33:26.784Z,51.37
2018-11-21T01:33:57.895Z,47.98
2018-11-21T01:34:36.781Z,43.10
2018-11-21T01:35:06.487Z,43.42
2018-11-21T01:35:37.627Z,42.90
2018-11-21T01:36:09.401Z,44.55
2018-11-21T01:36:40.982Z,45.05
2018-11-21T01:37:12.187Z,43.23
2018-11-21T01:37:43.602Z,44.60
2018-11-21T01:38:16.360Z,45.33
2018-11-21T01:38:47.528Z,46.88
2018-11-21T01:39:18.646Z,40.65
2018-11-21T01:39:49.852Z,46.15
2018-11-21T01:40:21.217Z,44.10
2018-11-21T01:40:54.906Z,45.48
2018-11-21T01:41:26.026Z,47.67
2018-11-21T01:41:57.215Z,47.27
2018-11-21T01:42:28.242Z,49.15
2018-11-21T01:42:59.320Z,45.15
2018-11-21T01:43:30.439Z,44.35
2018-11-21T01:44:01.509Z,48.58
2018-11-21T01:44:32.574Z,48.68
2018-11-21T01:45:03.642Z,49.63
2018-11-21T01:45:34.756Z,45.52
2018-11-21T01:46:05.832Z,44.67
2018-11-21T01:46:36.911Z,44.85
2018-11-21T01:47:07.974Z,47.30
2018-11-21T01:47:39.052Z,44.35
2018-11-21T01:48:10.114Z,43.85
2018-11-21T01:48:41.242Z,43.15
2018-11-21T01:49:12.335Z,47.60
2018-11-21T01:49:43.415Z,43.05
2018-11-21T01:50:14.493Z,45.25
2018-11-21T01:50:45.560Z,44.53
2018-11-21T01:51:16.629Z,45.67
2018-11-21T01:51:47.708Z,47.15
2018-11-21T01:52:18.834Z,47.20
2018-11-21T01:52:49.894Z,45.17
2018-11-21T01:53:20.999Z,43.83
2018-11-21T01:53:52.177Z,48.23
2018-11-21T01:54:24.208Z,51.53
2018-11-21T01:54:56.056Z,52.65
2018-11-21T01:55:27.139Z,50.35
2018-11-21T01:55:58.238Z,49.67
2018-11-21T01:56:29.458Z,55.83
2018-11-21T01:57:00.601Z,44.95
2018-11-21T01:57:33.687Z,45.55
2018-11-21T01:58:04.850Z,44.95
2018-11-21T01:58:35.983Z,46.10
2018-11-21T01:59:08.029Z,48.30
2018-11-21T01:59:39.147Z,49.27
2018-11-21T02:00:10.221Z,44.40
2018-11-21T02:00:41.292Z,43.58
2018-11-21T02:01:12.447Z,44.55
2018-11-21T02:01:43.519Z,43.65
2018-11-21T02:02:14.633Z,48.25
2018-11-21T02:02:45.704Z,49.77
2018-11-21T02:03:16.783Z,50.23
2018-11-21T02:03:47.866Z,62.60
2018-11-21T02:04:18.933Z,53.42
2018-11-21T02:04:50.007Z,54.08
2018-11-21T02:05:21.083Z,49.42
2018-11-21T02:05:52.219Z,46.00
2018-11-21T02:06:23.282Z,47.13
2018-11-21T02:06:54.368Z,46.05
2018-11-21T02:07:25.437Z,45.98
2018-11-21T02:07:56.504Z,44.50
2018-11-21T02:08:27.578Z,44.33
2018-11-21T02:08:58.650Z,49.38
2018-11-21T02:09:29.715Z,49.73
2018-11-21T02:10:00.790Z,45.70
2018-11-21T02:10:31.858Z,52.67
2018-11-21T02:11:02.944Z,48.65
2018-11-21T02:11:34.025Z,48.58
2018-11-21T02:12:05.107Z,47.27
2018-11-21T02:12:36.173Z,47.93
2018-11-21T02:13:07.234Z,45.60
2018-11-21T02:13:38.354Z,46.20
2018-11-21T02:14:09.435Z,49.23
2018-11-21T02:14:40.502Z,47.83
2018-11-21T02:15:11.620Z,49.23
2018-11-21T02:15:42.700Z,49.75
2018-11-21T02:16:13.777Z,55.45
2018-11-21T02:16:44.855Z,57.85
2018-11-21T02:17:15.939Z,46.10
2018-11-21T02:17:47.061Z,46.02
2018-11-21T02:18:18.170Z,44.40
2018-11-21T02:18:50.353Z,43.92
2018-11-21T02:19:21.450Z,45.15
2018-11-21T02:19:52.547Z,43.30
2018-11-21T02:20:23.693Z,46.28
2018-11-21T02:20:55.828Z,48.58
2018-11-21T02:21:26.961Z,43.68
2018-11-21T02:21:58.731Z,44.00
2018-11-21T02:22:29.886Z,43.55
2018-11-21T02:23:01.065Z,41.70
2018-11-21T02:23:32.214Z,45.48
2018-11-21T02:24:03.323Z,42.70
2018-11-21T02:24:34.506Z,44.70
2018-11-21T02:25:05.596Z,46.10
2018-11-21T02:25:36.715Z,47.93
2018-11-21T02:26:07.837Z,48.17
2018-11-21T02:26:38.960Z,44.93
2018-11-21T02:27:10.050Z,45.12
2018-11-21T02:27:41.122Z,48.17
2018-11-21T02:28:12.251Z,47.27
2018-11-21T02:28:43.257Z,48.75
2018-11-21T02:29:14.414Z,49.60
2018-11-21T02:29:45.477Z,47.38
2018-11-21T02:30:16.562Z,49.15
2018-11-21T02:30:47.640Z,47.60
2018-11-21T02:31:18.738Z,55.70
2018-11-21T02:31:49.856Z,55.33
2018-11-21T02:32:20.921Z,45.90
2018-11-21T02:32:51.989Z,47.43
2018-11-21T02:33:23.064Z,42.48
2018-11-21T02:33:54.121Z,47.73
2018-11-21T02:34:25.193Z,43.95
2018-11-21T02:34:56.275Z,45.75
2018-11-21T02:35:27.389Z,45.75
2018-11-21T02:35:58.527Z,49.48
2018-11-21T02:36:29.545Z,51.02
2018-11-21T02:37:00.734Z,44.42
2018-11-21T02:37:31.751Z,44.95
2018-11-21T02:38:02.880Z,45.17
2018-11-21T02:38:33.886Z,44.83
2018-11-21T02:39:04.958Z,44.93
2018-11-21T02:39:36.033Z,45.10
2018-11-21T02:40:07.109Z,49.15
2018-11-21T02:40:38.173Z,47.15
2018-11-21T02:41:09.252Z,45.40
2018-11-21T02:41:40.356Z,46.60
2018-11-21T02:42:11.459Z,44.60
2018-11-21T02:42:42.547Z,43.48
2018-11-21T02:43:13.633Z,46.55
2018-11-21T02:43:44.795Z,44.25
2018-11-21T02:44:15.941Z,45.20
2018-11-21T02:44:47.061Z,43.25
2018-11-21T02:45:18.202Z,42.40
2018-11-21T02:45:49.263Z,40.28
2018-11-21T02:46:20.334Z,42.88
2018-11-21T02:46:51.420Z,43.83
2018-11-21T02:47:22.536Z,40.12
2018-11-21T02:47:53.596Z,42.58
2018-11-21T02:48:24.681Z,39.13
2018-11-21T02:48:55.742Z,38.55
2018-11-21T02:49:26.806Z,41.08
2018-11-21T02:49:57.866Z,38.70
2018-11-21T02:50:28.937Z,40.38
2018-11-21T02:51:00.033Z,39.42
2018-11-21T02:51:31.147Z,41.13
2018-11-21T02:52:02.226Z,40.52
2018-11-21T02:52:33.292Z,40.63
2018-11-21T02:53:04.370Z,42.33
2018-11-21T02:53:35.447Z,43.70
2018-11-21T02:54:06.515Z,40.00
2018-11-21T02:54:37.631Z,39.05
2018-11-21T02:55:08.723Z,43.58
2018-11-21T02:55:39.791Z,38.45
2018-11-21T02:56:10.914Z,40.40
2018-11-21T02:56:41.954Z,41.08
2018-11-21T02:57:13.123Z,37.60
2018-11-21T02:57:44.141Z,38.90
2018-11-21T02:58:15.211Z,40.83
2018-11-21T02:58:46.352Z,44.77
2018-11-21T02:59:17.430Z,38.28
2018-11-21T02:59:48.494Z,38.73
2018-11-21T03:00:19.573Z,37.60
2018-11-21T03:00:53.380Z,40.58
2018-11-21T03:01:24.474Z,44.73
2018-11-21T03:01:55.724Z,42.23
2018-11-21T03:02:26.802Z,43.25
2018-11-21T03:02:58.000Z,36.38
2018-11-21T03:03:32.172Z,37.10
2018-11-21T03:04:03.365Z,37.67
2018-11-21T03:04:34.472Z,36.65
2018-11-21T03:05:10.143Z,35.65
2018-11-21T03:05:41.311Z,35.28
2018-11-21T03:06:12.980Z,36.30
2018-11-21T03:06:45.348Z,36.05
2018-11-21T03:07:16.508Z,34.98
2018-11-21T03:07:47.718Z,35.15
2018-11-21T03:08:18.824Z,34.45
2018-11-21T03:08:49.989Z,38.78
2018-11-21T03:09:21.172Z,35.70
2018-11-21T03:09:52.319Z,37.25
2018-11-21T03:10:23.409Z,38.05
2018-11-21T03:10:54.618Z,37.23
2018-11-21T03:11:25.761Z,34.33
2018-11-21T03:11:56.923Z,35.73
2018-11-21T03:12:28.060Z,34.43
2018-11-21T03:12:59.257Z,33.95
2018-11-21T03:13:30.361Z,34.83
2018-11-21T03:14:03.662Z,33.80
2018-11-21T03:14:34.768Z,37.17
2018-11-21T03:15:05.883Z,37.00
2018-11-21T03:15:37.003Z,34.50
2018-11-21T03:16:08.124Z,33.35
2018-11-21T03:16:39.187Z,34.33
2018-11-21T03:17:10.265Z,31.87
2018-11-21T03:17:41.402Z,33.05
2018-11-21T03:18:12.533Z,36.77
2018-11-21T03:18:43.540Z,33.90
2018-11-21T03:19:14.645Z,34.13
2018-11-21T03:19:45.680Z,34.03
2018-11-21T03:20:16.897Z,33.40
2018-11-21T03:20:47.998Z,36.05
2018-11-21T03:21:19.150Z,35.48
2018-11-21T03:21:50.228Z,35.95
2018-11-21T03:22:21.310Z,33.98
2018-11-21T03:22:52.326Z,33.38
2018-11-21T03:23:23.392Z,33.45
2018-11-21T03:23:54.501Z,32.42
2018-11-21T03:24:25.569Z,36.42
2018-11-21T03:24:56.654Z,34.15
2018-11-21T03:25:27.727Z,34.60
2018-11-21T03:25:58.900Z,37.30
2018-11-21T03:26:29.962Z,35.05
2018-11-21T03:27:01.052Z,35.13
2018-11-21T03:27:32.288Z,34.65
2018-11-21T03:28:03.379Z,35.58
2018-11-21T03:28:34.453Z,37.58
2018-11-21T03:29:05.549Z,36.08
2018-11-21T03:29:36.619Z,32.83
2018-11-21T03:30:07.714Z,34.65
2018-11-21T03:30:39.921Z,40.92
2018-11-21T03:31:09.853Z,34.05
2018-11-21T03:31:40.943Z,33.53
2018-11-21T03:32:12.068Z,36.20
2018-11-21T03:32:43.088Z,34.58
2018-11-21T03:33:14.199Z,35.38
2018-11-21T03:33:45.275Z,33.95
2018-11-21T03:34:16.344Z,32.35
2018-11-21T03:34:47.415Z,32.48
2018-11-21T03:35:18.526Z,32.13
2018-11-21T03:35:49.598Z,32.20
2018-11-21T03:36:20.668Z,32.65
2018-11-21T03:36:51.742Z,31.87
2018-11-21T03:37:22.804Z,31.55
2018-11-21T03:37:53.863Z,30.82
2018-11-21T03:38:24.935Z,30.23
2018-11-21T03:38:56.011Z,31.25
2018-11-21T03:39:27.148Z,31.25
2018-11-21T03:39:58.144Z,33.48
2018-11-21T03:40:29.329Z,32.30
2018-11-21T03:41:00.324Z,32.80
2018-11-21T03:41:31.387Z,32.25
2018-11-21T03:42:02.512Z,33.30
2018-11-21T03:42:33.646Z,32.93
2018-11-21T03:43:04.715Z,32.73
2018-11-21T03:43:35.868Z,33.25
2018-11-21T03:44:06.867Z,33.33
2018-11-21T03:44:37.924Z,35.80
2018-11-21T03:45:09.013Z,33.60
2018-11-21T03:45:40.096Z,37.38
2018-11-21T03:46:11.160Z,37.38
2018-11-21T03:46:42.234Z,34.90
2018-11-21T03:47:13.358Z,35.03
2018-11-21T03:47:44.420Z,35.78
2018-11-21T03:48:15.489Z,33.80
2018-11-21T03:48:46.560Z,33.80
2018-11-21T03:49:17.609Z,34.00
2018-11-21T03:49:48.681Z,34.53
2018-11-21T03:50:19.749Z,35.40
2018-11-21T03:50:50.825Z,33.23
2018-11-21T03:51:21.918Z,34.83
2018-11-21T03:51:52.983Z,37.88
2018-11-21T03:52:24.127Z,37.75
2018-11-21T03:52:55.217Z,37.98
2018-11-21T03:53:26.290Z,36.45
2018-11-21T03:53:57.386Z,36.90
2018-11-21T03:54:29.737Z,37.13
2018-11-21T03:55:02.371Z,47.05
2018-11-21T03:55:33.442Z,45.50
2018-11-21T03:56:04.506Z,34.70
2018-11-21T03:56:35.579Z,39.08
2018-11-21T03:57:06.637Z,37.28
2018-11-21T03:57:37.762Z,37.23
2018-11-21T03:58:09.142Z,37.33
2018-11-21T03:58:40.222Z,36.90
2018-11-21T03:59:11.311Z,35.30
2018-11-21T03:59:42.417Z,34.70
2018-11-21T04:00:13.491Z,38.25
2018-11-21T04:00:44.588Z,37.83
2018-11-21T04:01:16.961Z,35.70
2018-11-21T04:01:46.827Z,36.50
2018-11-21T04:02:17.909Z,33.85
2018-11-21T04:02:48.964Z,33.53
2018-11-21T04:03:20.070Z,33.55
2018-11-21T04:03:51.145Z,34.15
2018-11-21T04:04:22.279Z,33.50
2018-11-21T04:04:53.301Z,33.23
2018-11-21T04:05:24.895Z,33.80
2018-11-21T04:05:56.042Z,32.50
2018-11-21T04:06:27.279Z,33.33
2018-11-21T04:06:58.450Z,35.38
2018-11-21T04:07:30.083Z,34.38
2018-11-21T04:08:01.271Z,33.95
2018-11-21T04:08:32.448Z,35.33
2018-11-21T04:09:03.502Z,35.52
2018-11-21T04:09:34.694Z,34.70
2018-11-21T04:10:06.623Z,33.88
2018-11-21T04:10:38.833Z,33.85
2018-11-21T04:11:10.605Z,33.55
2018-11-21T04:11:43.781Z,32.80
2018-11-21T04:12:15.000Z,33.55
2018-11-21T04:12:46.073Z,33.05
2018-11-21T04:13:17.268Z,32.93
2018-11-21T04:13:51.549Z,34.20
2018-11-21T04:14:22.633Z,34.65
2018-11-21T04:14:53.822Z,33.35
2018-11-21T04:15:26.988Z,35.70
2018-11-21T04:15:59.045Z,34.05
2018-11-21T04:16:30.175Z,35.98
2018-11-21T04:17:01.276Z,33.70
2018-11-21T04:17:32.479Z,34.15
2018-11-21T04:18:03.614Z,36.35
2018-11-21T04:18:34.645Z,34.92
2018-11-21T04:19:05.713Z,36.17
2018-11-21T04:19:36.828Z,35.65
2018-11-21T04:20:07.892Z,32.93
2018-11-21T04:20:38.973Z,33.83
2018-11-21T04:21:10.048Z,33.70
2018-11-21T04:21:41.182Z,34.73
2018-11-21T04:22:12.189Z,34.20
2018-11-21T04:22:43.269Z,35.83
2018-11-21T04:23:14.338Z,31.60
2018-11-21T04:23:45.464Z,36.20
2018-11-21T04:24:16.525Z,35.70
2018-11-21T04:24:48.964Z,35.95
2018-11-21T04:25:18.678Z,37.33
2018-11-21T04:25:49.827Z,34.88
2018-11-21T04:26:20.841Z,38.67
2018-11-21T04:26:51.912Z,37.28
2018-11-21T04:27:22.979Z,37.23
2018-11-21T04:27:54.042Z,36.48
2018-11-21T04:28:25.102Z,36.30
2018-11-21T04:28:56.178Z,36.60
2018-11-21T04:29:27.251Z,33.15
2018-11-21T04:29:58.345Z,34.70
2018-11-21T04:30:29.455Z,31.23
2018-11-21T04:31:00.524Z,33.35
2018-11-21T04:31:31.705Z,32.45
2018-11-21T04:32:02.702Z,32.88
2018-11-21T04:32:33.782Z,35.92
2018-11-21T04:33:04.857Z,33.30
2018-11-21T04:33:35.934Z,32.93
2018-11-21T04:34:07.012Z,31.87
2018-11-21T04:34:39.090Z,32.58
2018-11-21T04:35:09.189Z,32.13
2018-11-21T04:35:40.260Z,33.25
2018-11-21T04:36:11.335Z,31.77
2018-11-21T04:36:42.413Z,30.17
2018-11-21T04:37:13.493Z,30.88
2018-11-21T04:37:44.548Z,29.82
2018-11-21T04:38:15.632Z,29.30
2018-11-21T04:38:46.706Z,30.75
2018-11-21T04:39:17.841Z,30.75
2018-11-21T04:39:48.933Z,29.95
2018-11-21T04:40:19.990Z,30.72
2018-11-21T04:40:51.062Z,30.32
2018-11-21T04:41:22.139Z,31.15
2018-11-21T04:41:53.218Z,32.63
2018-11-21T04:42:26.258Z,31.50
2018-11-21T04:42:57.330Z,29.70
2018-11-21T04:43:28.392Z,30.65
2018-11-21T04:43:59.537Z,29.57
2018-11-21T04:44:30.609Z,29.18
2018-11-21T04:45:01.761Z,30.25
2018-11-21T04:45:32.832Z,30.68
2018-11-21T04:46:03.901Z,32.63
2018-11-21T04:46:34.984Z,31.27
2018-11-21T04:47:06.048Z,29.80
2018-11-21T04:47:37.121Z,28.17
2018-11-21T04:48:08.185Z,29.42
2018-11-21T04:48:39.322Z,29.30
2018-11-21T04:49:10.389Z,30.10
2018-11-21T04:49:41.467Z,29.77
2018-11-21T04:50:12.544Z,27.73
2018-11-21T04:50:43.612Z,29.48
2018-11-21T04:51:14.687Z,29.77
2018-11-21T04:51:45.808Z,29.63
2018-11-21T04:52:16.944Z,30.10
2018-11-21T04:52:48.012Z,28.05
2018-11-21T04:53:19.085Z,28.07
2018-11-21T04:53:51.423Z,28.25
2018-11-21T04:54:21.294Z,27.87
2018-11-21T04:54:52.364Z,28.20
2018-11-21T04:55:23.435Z,28.42
2018-11-21T04:55:54.498Z,28.42
2018-11-21T04:56:25.571Z,28.20
2018-11-21T04:56:56.682Z,29.05
2018-11-21T04:57:27.754Z,28.00
2018-11-21T04:57:58.840Z,29.18
2018-11-21T04:58:29.912Z,29.15
2018-11-21T04:59:00.979Z,27.48
2018-11-21T04:59:32.048Z,29.60
2018-11-21T05:00:03.138Z,29.05
2018-11-21T05:00:34.215Z,29.55
2018-11-21T05:01:05.337Z,30.80
2018-11-21T05:01:36.468Z,30.02
2018-11-21T05:02:07.476Z,30.50
2018-11-21T05:02:38.548Z,28.83
2018-11-21T05:03:09.612Z,28.42
2018-11-21T05:03:40.692Z,28.15
2018-11-21T05:04:11.761Z,30.00
2018-11-21T05:04:42.836Z,29.37
2018-11-21T05:05:13.919Z,28.67
2018-11-21T05:05:45.025Z,29.32
2018-11-21T05:06:16.099Z,30.95
2018-11-21T05:06:47.178Z,29.82
2018-11-21T05:07:18.292Z,29.05
2018-11-21T05:07:49.383Z,29.18
2018-11-21T05:08:20.440Z,27.73
2018-11-21T05:08:51.585Z,28.85
2018-11-21T05:09:22.582Z,28.15
2018-11-21T05:09:53.688Z,29.65
2018-11-21T05:10:24.761Z,29.15
2018-11-21T05:10:55.832Z,30.17
2018-11-21T05:11:26.911Z,28.85
2018-11-21T05:11:58.769Z,29.67
2018-11-21T05:12:29.891Z,30.35
2018-11-21T05:13:00.963Z,29.95
2018-11-21T05:13:32.101Z,30.10
2018-11-21T05:14:03.119Z,29.67
2018-11-21T05:14:34.189Z,29.42
2018-11-21T05:15:05.259Z,29.23
2018-11-21T05:15:36.390Z,28.07
2018-11-21T05:16:07.394Z,28.30
2018-11-21T05:16:38.488Z,29.10
2018-11-21T05:17:09.598Z,29.57
2018-11-21T05:17:40.700Z,30.35
2018-11-21T05:18:11.779Z,28.25
2018-11-21T05:18:42.853Z,29.77
2018-11-21T05:19:13.925Z,29.50
2018-11-21T05:19:45.019Z,29.87
2018-11-21T05:20:16.070Z,29.37
2018-11-21T05:20:47.144Z,30.40
2018-11-21T05:21:18.258Z,28.85
2018-11-21T05:21:49.381Z,29.02
2018-11-21T05:22:20.539Z,29.20
2018-11-21T05:22:51.568Z,29.42
2018-11-21T05:23:22.640Z,28.47
2018-11-21T05:23:53.700Z,28.62
2018-11-21T05:24:24.776Z,29.05
2018-11-21T05:24:55.853Z,29.27
2018-11-21T05:25:26.913Z,29.75
2018-11-21T05:25:57.989Z,29.67
2018-11-21T05:26:29.059Z,30.43
2018-11-21T05:27:00.191Z,29.05
2018-11-21T05:27:31.262Z,29.45
2018-11-21T05:28:02.377Z,30.20
2018-11-21T05:28:33.454Z,28.98
2018-11-21T05:29:04.561Z,27.73
2018-11-21T05:29:35.639Z,28.02
2018-11-21T05:30:06.713Z,28.32
2018-11-21T05:30:37.778Z,27.32
2018-11-21T05:31:08.849Z,27.45
2018-11-21T05:31:39.961Z,26.40
2018-11-21T05:32:11.051Z,26.82
2018-11-21T05:32:42.108Z,26.80
2018-11-21T05:33:13.188Z,27.95
2018-11-21T05:33:44.257Z,27.10
2018-11-21T05:34:15.318Z,26.75
2018-11-21T05:34:46.400Z,27.13
2018-11-21T05:35:17.463Z,25.95
2018-11-21T05:35:48.532Z,28.00
2018-11-21T05:36:19.666Z,25.70
2018-11-21T05:36:50.739Z,27.73
2018-11-21T05:37:21.887Z,26.62
2018-11-21T05:37:52.954Z,26.70
2018-11-21T05:38:24.034Z,28.42
2018-11-21T05:38:55.105Z,26.80
2018-11-21T05:39:26.168Z,27.25
2018-11-21T05:39:57.242Z,26.52
2018-11-21T05:40:28.329Z,26.00
2018-11-21T05:40:59.452Z,26.48
2018-11-21T05:41:30.561Z,26.42
2018-11-21T05:42:01.682Z,25.52
2018-11-21T05:42:32.847Z,28.92
2018-11-21T05:43:03.939Z,28.35
2018-11-21T05:43:35.031Z,29.48
2018-11-21T05:44:06.145Z,26.27
2018-11-21T05:44:37.155Z,26.07
2018-11-21T05:45:08.292Z,28.87
2018-11-21T05:45:39.363Z,25.75
2018-11-21T05:46:10.530Z,26.95
2018-11-21T05:46:41.531Z,28.38
2018-11-21T05:47:12.681Z,28.62
2018-11-21T05:47:43.691Z,27.30
2018-11-21T05:48:14.830Z,27.27
2018-11-21T05:48:45.889Z,28.60
2018-11-21T05:49:16.971Z,28.67
2018-11-21T05:49:48.041Z,27.67
2018-11-21T05:50:19.121Z,28.30
2018-11-21T05:50:50.198Z,28.50
2018-11-21T05:51:21.358Z,27.65
2018-11-21T05:51:52.473Z,27.07
2018-11-21T05:52:23.555Z,27.25
2018-11-21T05:52:54.726Z,26.97
2018-11-21T05:53:25.778Z,27.10
2018-11-21T05:53:56.864Z,26.02
2018-11-21T05:54:28.007Z,26.65
2018-11-21T05:54:59.191Z,27.00
2018-11-21T05:55:30.362Z,26.85
2018-11-21T05:56:01.402Z,27.50
2018-11-21T05:56:32.479Z,27.42
2018-11-21T05:57:03.508Z,27.98
2018-11-21T05:57:34.676Z,28.75
2018-11-21T05:58:05.768Z,28.20
2018-11-21T05:58:40.829Z,28.35
2018-11-21T05:59:12.870Z,26.73
2018-11-21T05:59:48.048Z,28.65
2018-11-21T06:00:19.221Z,26.65
2018-11-21T06:00:50.280Z,27.60
2018-11-21T06:01:22.488Z,27.27
2018-11-21T06:01:54.787Z,27.22
2018-11-21T06:02:28.481Z,24.92
2018-11-21T06:03:03.629Z,26.23
2018-11-21T06:03:34.794Z,26.25
2018-11-21T06:04:16.569Z,25.25
2018-11-21T06:04:47.753Z,25.17
2018-11-21T06:05:20.794Z,25.62
2018-11-21T06:05:52.025Z,24.87
2018-11-21T06:06:31.320Z,27.27
2018-11-21T06:07:10.167Z,25.88
2018-11-21T06:07:41.363Z,26.45
2018-11-21T06:08:14.600Z,27.48
2018-11-21T06:08:45.776Z,27.77
2018-11-21T06:09:16.825Z,26.62
2018-11-21T06:09:49.039Z,26.95
2018-11-21T06:10:22.645Z,29.25
2018-11-21T06:10:54.964Z,27.60
2018-11-21T06:11:31.303Z,27.60
2018-11-21T06:12:11.711Z,27.70
2018-11-21T06:12:41.240Z,27.35
2018-11-21T06:13:14.627Z,28.00
2018-11-21T06:13:46.759Z,27.67
2018-11-21T06:14:22.092Z,26.25
2018-11-21T06:14:53.272Z,27.10
2018-11-21T06:15:24.437Z,27.48
2018-11-21T06:15:55.651Z,26.00
2018-11-21T06:16:28.930Z,26.48
2018-11-21T06:17:00.075Z,26.85
2018-11-21T06:17:33.691Z,27.55
2018-11-21T06:18:04.891Z,28.70
2018-11-21T06:18:36.324Z,29.95
2018-11-21T06:19:07.454Z,28.60
2018-11-21T06:19:38.657Z,29.32
2018-11-21T06:20:10.217Z,28.32
2018-11-21T06:20:43.965Z,30.57
2018-11-21T06:21:14.981Z,30.55
2018-11-21T06:21:46.131Z,30.05
2018-11-21T06:22:17.414Z,30.62
2018-11-21T06:22:48.470Z,30.70
2018-11-21T06:23:19.864Z,30.88
2018-11-21T06:23:51.063Z,30.52
2018-11-21T06:24:24.641Z,33.28
2018-11-21T06:24:57.709Z,31.70
2018-11-21T06:25:27.933Z,31.35
2018-11-21T06:25:59.027Z,34.75
2018-11-21T06:26:32.625Z,32.03
2018-11-21T06:27:03.749Z,32.38
2018-11-21T06:27:35.270Z,32.55
2018-11-21T06:28:06.416Z,32.17
2018-11-21T06:28:37.781Z,31.12
2018-11-21T06:29:08.967Z,31.87
2018-11-21T06:29:40.833Z,32.60
2018-11-21T06:30:11.966Z,31.87
2018-11-21T06:30:45.385Z,32.33
2018-11-21T06:31:15.484Z,31.50
2018-11-21T06:31:46.713Z,30.45
2018-11-21T06:32:21.784Z,31.90
2018-11-21T06:33:06.283Z,31.35
2018-11-21T06:33:37.495Z,30.95
2018-11-21T06:34:08.589Z,31.12
2018-11-21T06:34:40.614Z,32.33
2018-11-21T06:35:11.962Z,32.45
2018-11-21T06:35:43.556Z,33.00
2018-11-21T06:36:14.751Z,34.08
2018-11-21T06:36:48.669Z,36.00
2018-11-21T06:37:19.865Z,35.25
2018-11-21T06:37:50.942Z,33.75
2018-11-21T06:38:22.022Z,36.40
2018-11-21T06:38:53.134Z,36.15
2018-11-21T06:39:24.314Z,35.38
2018-11-21T06:39:56.542Z,36.38
2018-11-21T06:40:26.630Z,33.73
2018-11-21T06:40:57.707Z,34.73
2018-11-21T06:41:28.833Z,35.45
2018-11-21T06:41:59.923Z,37.80
2018-11-21T06:42:30.987Z,36.77
2018-11-21T06:43:02.066Z,34.27
2018-11-21T06:43:33.189Z,35.30